sensor_id;sensor_type;location;lat;lon;timestamp;pressure;altitude;pressure_sealevel;temperature;humidity
19005;BME280;9635;52.078;8.648;2023-05-01T00:01:59;100702.34;;;9.15;49.81
19005;BME280;9635;52.078;8.648;2023-05-01T00:07:02;100691.81;;;8.99;49.58
19005;BME280;9635;52.078;8.648;2023-05-01T00:12:05;100682.41;;;8.93;49.08
19005;BME280;9635;52.078;8.648;2023-05-01T00:17:09;100680.25;;;8.98;48.93
19005;BME280;9635;52.078;8.648;2023-05-01T00:22:12;100667.06;;;8.95;48.74
19005;BME280;9635;52.078;8.648;2023-05-01T00:27:15;100670.19;;;8.89;49.49
19005;BME280;9635;52.078;8.648;2023-05-01T00:32:19;100667.72;;;8.86;49.20
19005;BME280;9635;52.078;8.648;2023-05-01T00:37:23;100664.28;;;8.71;48.84
19005;BME280;9635;52.078;8.648;2023-05-01T00:42:26;100655.06;;;8.75;48.66
19005;BME280;9635;52.078;8.648;2023-05-01T00:47:30;100656.34;;;8.82;48.47
19005;BME280;9635;52.078;8.648;2023-05-01T00:52:33;100652.81;;;8.82;48.18
19005;BME280;9635;52.078;8.648;2023-05-01T00:57:36;100643.94;;;8.81;48.39
19005;BME280;9635;52.078;8.648;2023-05-01T01:02:40;100643.06;;;8.81;48.43
19005;BME280;9635;52.078;8.648;2023-05-01T01:07:48;100633.44;;;8.78;48.70
19005;BME280;9635;52.078;8.648;2023-05-01T01:13:01;100622.59;;;8.67;49.24
19005;BME280;9635;52.078;8.648;2023-05-01T01:18:11;100612.50;;;8.58;49.46
19005;BME280;9635;52.078;8.648;2023-05-01T01:34:27;100612.22;;;8.23;49.77
19005;BME280;9635;52.078;8.648;2023-05-01T01:39:37;100593.69;;;8.20;50.13
19005;BME280;9635;52.078;8.648;2023-05-01T01:44:47;100601.06;;;8.16;50.26
19005;BME280;9635;52.078;8.648;2023-05-01T01:49:54;100594.97;;;8.14;50.10
19005;BME280;9635;52.078;8.648;2023-05-01T01:55:01;100584.16;;;8.15;50.01
19005;BME280;9635;52.078;8.648;2023-05-01T02:00:08;100575.63;;;8.23;49.85
19005;BME280;9635;52.078;8.648;2023-05-01T02:05:20;100564.91;;;8.23;49.80
19005;BME280;9635;52.078;8.648;2023-05-01T02:10:24;100558.50;;;8.26;50.07
19005;BME280;9635;52.078;8.648;2023-05-01T02:15:29;100557.31;;;8.30;50.16
19005;BME280;9635;52.078;8.648;2023-05-01T02:20:35;100546.91;;;8.25;50.29
19005;BME280;9635;52.078;8.648;2023-05-01T02:25:39;100559.13;;;8.16;50.48
19005;BME280;9635;52.078;8.648;2023-05-01T02:30:42;100541.69;;;8.24;50.46
19005;BME280;9635;52.078;8.648;2023-05-01T02:35:49;100543.28;;;8.13;50.63
19005;BME280;9635;52.078;8.648;2023-05-01T02:40:55;100531.59;;;8.02;50.69
19005;BME280;9635;52.078;8.648;2023-05-01T02:46:00;100523.78;;;7.99;50.24
19005;BME280;9635;52.078;8.648;2023-05-01T02:51:08;100537.38;;;7.95;50.24
19005;BME280;9635;52.078;8.648;2023-05-01T02:56:11;100522.91;;;7.85;50.58
19005;BME280;9635;52.078;8.648;2023-05-01T03:01:14;100509.06;;;7.79;50.56
19005;BME280;9635;52.078;8.648;2023-05-01T03:06:19;100513.34;;;7.81;50.39
19005;BME280;9635;52.078;8.648;2023-05-01T03:11:22;100501.03;;;7.79;50.43
19005;BME280;9635;52.078;8.648;2023-05-01T03:16:25;100493.56;;;7.71;50.71
19005;BME280;9635;52.078;8.648;2023-05-01T03:21:30;100488.72;;;7.76;50.84
19005;BME280;9635;52.078;8.648;2023-05-01T03:26:34;100476.53;;;7.72;50.61
19005;BME280;9635;52.078;8.648;2023-05-01T03:31:37;100488.72;;;7.63;50.30
19005;BME280;9635;52.078;8.648;2023-05-01T03:36:43;100473.19;;;7.56;50.40
19005;BME280;9635;52.078;8.648;2023-05-01T03:41:46;100467.00;;;7.55;50.53
19005;BME280;9635;52.078;8.648;2023-05-01T03:46:56;100470.25;;;7.46;50.66
19005;BME280;9635;52.078;8.648;2023-05-01T03:52:03;100460.31;;;7.48;50.61
19005;BME280;9635;52.078;8.648;2023-05-01T03:57:07;100459.78;;;7.43;50.80
19005;BME280;9635;52.078;8.648;2023-05-01T04:02:09;100450.81;;;7.44;50.82
19005;BME280;9635;52.078;8.648;2023-05-01T04:07:14;100449.22;;;7.41;50.91
19005;BME280;9635;52.078;8.648;2023-05-01T04:12:19;100452.63;;;7.43;50.94
19005;BME280;9635;52.078;8.648;2023-05-01T04:17:22;100450.81;;;7.44;50.78
19005;BME280;9635;52.078;8.648;2023-05-01T04:22:27;100450.41;;;7.50;50.95
19005;BME280;9635;52.078;8.648;2023-05-01T04:27:30;100450.19;;;7.53;50.47
19005;BME280;9635;52.078;8.648;2023-05-01T04:32:33;100443.56;;;7.59;50.34
19005;BME280;9635;52.078;8.648;2023-05-01T04:37:38;100438.03;;;7.75;50.37
19005;BME280;9635;52.078;8.648;2023-05-01T04:42:41;100436.47;;;7.85;50.61
19005;BME280;9635;52.078;8.648;2023-05-01T04:47:47;100433.44;;;7.89;50.54
19005;BME280;9635;52.078;8.648;2023-05-01T04:52:51;100430.78;;;7.89;50.83
19005;BME280;9635;52.078;8.648;2023-05-01T04:57:54;100430.03;;;8.00;50.60
19005;BME280;9635;52.078;8.648;2023-05-01T05:02:58;100430.13;;;8.11;50.75
19005;BME280;9635;52.078;8.648;2023-05-01T05:08:04;100424.38;;;8.17;50.65
19005;BME280;9635;52.078;8.648;2023-05-01T05:13:09;100424.69;;;8.26;50.32
19005;BME280;9635;52.078;8.648;2023-05-01T05:18:13;100426.25;;;8.41;50.68
19005;BME280;9635;52.078;8.648;2023-05-01T05:23:17;100425.31;;;8.55;50.61
19005;BME280;9635;52.078;8.648;2023-05-01T05:28:22;100416.63;;;8.64;50.84
19005;BME280;9635;52.078;8.648;2023-05-01T05:33:25;100415.16;;;8.84;50.59
19005;BME280;9635;52.078;8.648;2023-05-01T05:38:31;100417.44;;;9.01;50.20
19005;BME280;9635;52.078;8.648;2023-05-01T05:43:35;100418.59;;;9.10;50.22
19005;BME280;9635;52.078;8.648;2023-05-01T05:48:40;100407.72;;;9.24;50.51
19005;BME280;9635;52.078;8.648;2023-05-01T05:53:45;100409.91;;;9.55;50.47
19005;BME280;9635;52.078;8.648;2023-05-01T05:58:48;100391.09;;;9.90;49.71
19005;BME280;9635;52.078;8.648;2023-05-01T06:03:51;100403.31;;;10.05;49.02
19005;BME280;9635;52.078;8.648;2023-05-01T06:08:57;100405.16;;;10.27;48.34
19005;BME280;9635;52.078;8.648;2023-05-01T06:14:00;100395.13;;;10.52;48.48
19005;BME280;9635;52.078;8.648;2023-05-01T06:19:04;100396.34;;;10.70;48.01
19005;BME280;9635;52.078;8.648;2023-05-01T06:24:09;100393.69;;;10.91;47.50
19005;BME280;9635;52.078;8.648;2023-05-01T06:29:19;100390.53;;;10.97;47.04
19005;BME280;9635;52.078;8.648;2023-05-01T06:34:22;100388.59;;;11.32;46.22
19005;BME280;9635;52.078;8.648;2023-05-01T06:39:28;100379.88;;;11.81;46.04
19005;BME280;9635;52.078;8.648;2023-05-01T06:44:31;100385.53;;;11.99;45.32
19005;BME280;9635;52.078;8.648;2023-05-01T06:49:35;100377.53;;;12.19;45.24
19005;BME280;9635;52.078;8.648;2023-05-01T06:54:39;100373.66;;;12.42;44.95
19005;BME280;9635;52.078;8.648;2023-05-01T06:59:42;100371.75;;;12.64;44.65
19005;BME280;9635;52.078;8.648;2023-05-01T07:04:45;100365.00;;;12.79;44.59
19005;BME280;9635;52.078;8.648;2023-05-01T07:09:49;100369.41;;;12.90;44.12
19005;BME280;9635;52.078;8.648;2023-05-01T07:14:52;100366.44;;;12.93;43.66
19005;BME280;9635;52.078;8.648;2023-05-01T07:19:55;100367.28;;;13.03;44.03
19005;BME280;9635;52.078;8.648;2023-05-01T07:24:59;100365.31;;;13.15;44.15
19005;BME280;9635;52.078;8.648;2023-05-01T07:30:05;100358.91;;;13.16;43.09
19005;BME280;9635;52.078;8.648;2023-05-01T07:35:08;100359.66;;;13.47;43.86
19005;BME280;9635;52.078;8.648;2023-05-01T07:40:13;100357.72;;;13.77;42.62
19005;BME280;9635;52.078;8.648;2023-05-01T07:45:16;100343.66;;;14.20;42.10
19005;BME280;9635;52.078;8.648;2023-05-01T07:50:19;100341.69;;;14.50;41.41
19005;BME280;9635;52.078;8.648;2023-05-01T07:55:24;100337.53;;;15.01;40.82
19005;BME280;9635;52.078;8.648;2023-05-01T08:00:27;100339.53;;;15.53;41.54
19005;BME280;9635;52.078;8.648;2023-05-01T08:05:30;100340.38;;;16.05;40.21
19005;BME280;9635;52.078;8.648;2023-05-01T08:10:37;100334.91;;;16.31;39.32
19005;BME280;9635;52.078;8.648;2023-05-01T08:15:40;100335.75;;;16.74;39.90
19005;BME280;9635;52.078;8.648;2023-05-01T08:20:43;100325.34;;;17.29;39.65
19005;BME280;9635;52.078;8.648;2023-05-01T08:25:48;100318.38;;;17.51;37.95
19005;BME280;9635;52.078;8.648;2023-05-01T08:30:53;100318.69;;;17.64;38.06
19005;BME280;9635;52.078;8.648;2023-05-01T08:35:56;100326.31;;;17.60;37.54
19005;BME280;9635;52.078;8.648;2023-05-01T08:41:00;100319.72;;;17.30;38.45
19005;BME280;9635;52.078;8.648;2023-05-01T08:46:05;100320.03;;;17.76;37.97
19005;BME280;9635;52.078;8.648;2023-05-01T08:51:10;100313.13;;;18.29;38.29
19005;BME280;9635;52.078;8.648;2023-05-01T08:56:16;100313.78;;;18.23;37.01
19005;BME280;9635;52.078;8.648;2023-05-01T09:01:21;100307.25;;;18.01;38.13
19005;BME280;9635;52.078;8.648;2023-05-01T09:06:24;100298.59;;;18.06;38.44
19005;BME280;9635;52.078;8.648;2023-05-01T09:11:30;100295.94;;;18.29;37.44
19005;BME280;9635;52.078;8.648;2023-05-01T09:16:34;100293.88;;;18.62;37.69
19005;BME280;9635;52.078;8.648;2023-05-01T09:21:37;100288.69;;;18.75;36.48
19005;BME280;9635;52.078;8.648;2023-05-01T09:26:41;100289.34;;;19.32;36.54
19005;BME280;9635;52.078;8.648;2023-05-01T09:31:44;100281.34;;;19.68;36.44
19005;BME280;9635;52.078;8.648;2023-05-01T09:36:46;100276.84;;;19.37;36.04
19005;BME280;9635;52.078;8.648;2023-05-01T09:41:50;100268.38;;;19.70;35.81
19005;BME280;9635;52.078;8.648;2023-05-01T09:46:54;100272.50;;;19.96;36.56
19005;BME280;9635;52.078;8.648;2023-05-01T09:52:09;100264.16;;;20.63;34.57
19005;BME280;9635;52.078;8.648;2023-05-01T09:57:14;100261.16;;;20.58;33.96
19005;BME280;9635;52.078;8.648;2023-05-01T10:02:27;100263.56;;;20.02;35.05
19005;BME280;9635;52.078;8.648;2023-05-01T10:07:30;100256.69;;;20.21;35.52
19005;BME280;9635;52.078;8.648;2023-05-01T10:12:35;100257.34;;;20.74;35.33
19005;BME280;9635;52.078;8.648;2023-05-01T10:17:39;100252.84;;;21.31;34.13
19005;BME280;9635;52.078;8.648;2023-05-01T10:22:42;100254.31;;;21.89;34.48
19005;BME280;9635;52.078;8.648;2023-05-01T10:27:47;100244.19;;;22.25;32.76
19005;BME280;9635;52.078;8.648;2023-05-01T10:32:51;100249.16;;;22.08;32.57
19005;BME280;9635;52.078;8.648;2023-05-01T10:37:58;100236.31;;;22.57;32.70
19005;BME280;9635;52.078;8.648;2023-05-01T10:43:19;100236.59;;;23.08;31.80
19005;BME280;9635;52.078;8.648;2023-05-01T10:48:51;100233.16;;;23.86;30.67
19005;BME280;9635;52.078;8.648;2023-05-01T10:54:22;100231.88;;;22.62;31.06
19005;BME280;9635;52.078;8.648;2023-05-01T11:05:10;100213.56;;;23.82;30.36
19005;BME280;9635;52.078;8.648;2023-05-01T11:10:25;100207.06;;;23.04;30.54
19005;BME280;9635;52.078;8.648;2023-05-01T11:15:31;100197.97;;;23.76;30.15
19005;BME280;9635;52.078;8.648;2023-05-01T11:20:58;100193.72;;;23.74;28.33
19005;BME280;9635;52.078;8.648;2023-05-01T11:26:03;100180.69;;;23.62;28.95
19005;BME280;9635;52.078;8.648;2023-05-01T11:31:15;100189.56;;;23.58;29.95
19005;BME280;9635;52.078;8.648;2023-05-01T11:36:19;100181.53;;;23.70;29.88
19005;BME280;9635;52.078;8.648;2023-05-01T11:41:22;100179.94;;;24.52;29.21
19005;BME280;9635;52.078;8.648;2023-05-01T11:46:28;100171.50;;;26.02;29.50
19005;BME280;9635;52.078;8.648;2023-05-01T11:51:31;100175.53;;;26.37;28.27
19005;BME280;9635;52.078;8.648;2023-05-01T11:56:37;100172.66;;;24.26;28.58
19005;BME280;9635;52.078;8.648;2023-05-01T12:01:44;100167.47;;;23.06;29.15
19005;BME280;9635;52.078;8.648;2023-05-01T12:06:47;100163.03;;;23.38;29.26
19005;BME280;9635;52.078;8.648;2023-05-01T12:11:51;100154.56;;;24.12;29.84
19005;BME280;9635;52.078;8.648;2023-05-01T12:16:56;100158.09;;;24.57;28.10
19005;BME280;9635;52.078;8.648;2023-05-01T12:22:05;100163.88;;;23.46;29.95
19005;BME280;9635;52.078;8.648;2023-05-01T12:27:08;100154.00;;;22.98;29.61
19005;BME280;9635;52.078;8.648;2023-05-01T12:32:13;100155.22;;;21.81;31.53
19005;BME280;9635;52.078;8.648;2023-05-01T12:37:17;100150.75;;;21.73;31.47
19005;BME280;9635;52.078;8.648;2023-05-01T12:42:20;100147.78;;;22.16;30.26
19005;BME280;9635;52.078;8.648;2023-05-01T12:47:24;100145.69;;;21.70;30.77
19005;BME280;9635;52.078;8.648;2023-05-01T12:52:27;100149.19;;;21.22;32.22
19005;BME280;9635;52.078;8.648;2023-05-01T12:57:30;100143.09;;;21.20;33.77
19005;BME280;9635;52.078;8.648;2023-05-01T13:02:34;100131.38;;;22.29;31.83
19005;BME280;9635;52.078;8.648;2023-05-01T13:07:37;100143.28;;;22.76;29.35
19005;BME280;9635;52.078;8.648;2023-05-01T13:12:43;100127.50;;;23.83;28.50
19005;BME280;9635;52.078;8.648;2023-05-01T13:17:48;100122.59;;;24.87;26.79
19005;BME280;9635;52.078;8.648;2023-05-01T13:22:51;100127.97;;;25.01;26.36
19005;BME280;9635;52.078;8.648;2023-05-01T13:27:54;100127.84;;;23.35;29.81
19005;BME280;9635;52.078;8.648;2023-05-01T13:32:58;100129.78;;;23.21;28.78
19005;BME280;9635;52.078;8.648;2023-05-01T13:38:02;100113.81;;;24.15;28.14
19005;BME280;9635;52.078;8.648;2023-05-01T13:43:12;100110.03;;;25.60;26.59
19005;BME280;9635;52.078;8.648;2023-05-01T13:48:23;100111.66;;;24.24;28.13
19005;BME280;9635;52.078;8.648;2023-05-01T13:53:27;100100.59;;;24.69;26.54
19005;BME280;9635;52.078;8.648;2023-05-01T13:58:31;100099.31;;;24.71;28.39
19005;BME280;9635;52.078;8.648;2023-05-01T14:03:39;100098.97;;;25.97;27.23
19005;BME280;9635;52.078;8.648;2023-05-01T14:08:42;100092.59;;;25.48;26.52
19005;BME280;9635;52.078;8.648;2023-05-01T14:13:49;100097.53;;;25.46;26.15
19005;BME280;9635;52.078;8.648;2023-05-01T14:18:54;100086.97;;;26.10;26.78
19005;BME280;9635;52.078;8.648;2023-05-01T14:23:58;100085.66;;;27.36;25.55
19005;BME280;9635;52.078;8.648;2023-05-01T14:29:00;100083.16;;;26.76;25.28
19005;BME280;9635;52.078;8.648;2023-05-01T14:34:05;100078.19;;;22.72;28.47
19005;BME280;9635;52.078;8.648;2023-05-01T14:39:09;100084.00;;;22.09;31.28
19005;BME280;9635;52.078;8.648;2023-05-01T14:44:12;100092.22;;;22.09;31.10
19005;BME280;9635;52.078;8.648;2023-05-01T14:49:21;100090.22;;;23.56;28.88
19005;BME280;9635;52.078;8.648;2023-05-01T14:54:24;100086.41;;;22.52;29.65
19005;BME280;9635;52.078;8.648;2023-05-01T14:59:27;100083.66;;;22.59;29.93
19005;BME280;9635;52.078;8.648;2023-05-01T15:04:31;100079.59;;;22.08;29.81
19005;BME280;9635;52.078;8.648;2023-05-01T15:09:34;100078.53;;;21.48;31.17
19005;BME280;9635;52.078;8.648;2023-05-01T15:14:37;100077.78;;;21.67;31.11
19005;BME280;9635;52.078;8.648;2023-05-01T15:19:41;100074.38;;;22.73;30.46
19005;BME280;9635;52.078;8.648;2023-05-01T15:24:44;100071.53;;;23.46;27.97
19005;BME280;9635;52.078;8.648;2023-05-01T15:29:47;100070.84;;;23.57;28.15
19005;BME280;9635;52.078;8.648;2023-05-01T15:34:51;100068.09;;;24.02;27.44
19005;BME280;9635;52.078;8.648;2023-05-01T15:39:57;100065.00;;;23.40;29.31
19005;BME280;9635;52.078;8.648;2023-05-01T15:45:01;100067.38;;;23.17;29.98
19005;BME280;9635;52.078;8.648;2023-05-01T15:50:08;100067.63;;;22.95;29.85
19005;BME280;9635;52.078;8.648;2023-05-01T15:55:12;100072.72;;;22.45;30.17
19005;BME280;9635;52.078;8.648;2023-05-01T16:00:15;100069.44;;;21.88;31.42
19005;BME280;9635;52.078;8.648;2023-05-01T16:05:20;100077.97;;;21.17;32.78
19005;BME280;9635;52.078;8.648;2023-05-01T16:10:24;100078.78;;;20.62;33.34
19005;BME280;9635;52.078;8.648;2023-05-01T16:15:29;100085.94;;;20.20;34.12
19005;BME280;9635;52.078;8.648;2023-05-01T16:20:38;100076.06;;;20.62;34.29
19005;BME280;9635;52.078;8.648;2023-05-01T16:25:42;100087.25;;;20.45;34.43
19005;BME280;9635;52.078;8.648;2023-05-01T16:30:46;100082.44;;;20.47;34.45
19005;BME280;9635;52.078;8.648;2023-05-01T16:35:51;100083.91;;;20.71;33.70
19005;BME280;9635;52.078;8.648;2023-05-01T16:40:53;100080.41;;;20.56;34.41
19005;BME280;9635;52.078;8.648;2023-05-01T16:45:56;100089.19;;;20.30;34.30
19005;BME280;9635;52.078;8.648;2023-05-01T16:51:02;100094.28;;;20.33;33.86
19005;BME280;9635;52.078;8.648;2023-05-01T16:56:06;100092.31;;;19.39;35.89
19005;BME280;9635;52.078;8.648;2023-05-01T17:01:10;100094.56;;;20.02;34.68
19005;BME280;9635;52.078;8.648;2023-05-01T17:06:15;100091.84;;;19.51;35.14
19005;BME280;9635;52.078;8.648;2023-05-01T17:11:18;100094.28;;;19.31;35.73
19005;BME280;9635;52.078;8.648;2023-05-01T17:16:21;100097.38;;;19.28;36.64
19005;BME280;9635;52.078;8.648;2023-05-01T17:21:25;100101.63;;;19.15;36.37
19005;BME280;9635;52.078;8.648;2023-05-01T17:26:28;100116.16;;;18.70;37.65
19005;BME280;9635;52.078;8.648;2023-05-01T17:31:31;100132.94;;;18.35;39.06
19005;BME280;9635;52.078;8.648;2023-05-01T17:36:36;100131.34;;;18.18;39.48
19005;BME280;9635;52.078;8.648;2023-05-01T17:41:39;100143.63;;;18.14;39.95
19005;BME280;9635;52.078;8.648;2023-05-01T17:46:41;100146.28;;;17.99;40.32
19005;BME280;9635;52.078;8.648;2023-05-01T17:51:46;100158.16;;;17.90;40.34
19005;BME280;9635;52.078;8.648;2023-05-01T17:56:48;100154.66;;;17.73;40.39
19005;BME280;9635;52.078;8.648;2023-05-01T18:01:51;100170.91;;;17.50;40.90
19005;BME280;9635;52.078;8.648;2023-05-01T18:06:56;100172.50;;;17.28;41.63
19005;BME280;9635;52.078;8.648;2023-05-01T18:11:59;100182.34;;;17.21;42.44
19005;BME280;9635;52.078;8.648;2023-05-01T18:17:02;100179.94;;;17.26;41.96
19005;BME280;9635;52.078;8.648;2023-05-01T18:22:07;100188.63;;;17.13;42.69
19005;BME280;9635;52.078;8.648;2023-05-01T18:27:10;100194.56;;;16.76;43.13
19005;BME280;9635;52.078;8.648;2023-05-01T18:32:13;100202.28;;;16.30;43.85
19005;BME280;9635;52.078;8.648;2023-05-01T18:37:17;100221.44;;;15.86;47.66
19005;BME280;9635;52.078;8.648;2023-05-01T18:42:20;100243.47;;;15.65;47.95
19005;BME280;9635;52.078;8.648;2023-05-01T18:47:23;100258.41;;;14.81;47.25
19005;BME280;9635;52.078;8.648;2023-05-01T18:52:28;100252.53;;;15.30;46.92
19005;BME280;9635;52.078;8.648;2023-05-01T18:57:31;100256.81;;;15.58;45.71
19005;BME280;9635;52.078;8.648;2023-05-01T19:02:34;100256.69;;;15.68;45.17
19005;BME280;9635;52.078;8.648;2023-05-01T19:07:38;100254.53;;;15.45;45.30
19005;BME280;9635;52.078;8.648;2023-05-01T19:12:41;100260.22;;;15.34;45.74
19005;BME280;9635;52.078;8.648;2023-05-01T19:17:44;100269.28;;;15.07;48.91
19005;BME280;9635;52.078;8.648;2023-05-01T19:22:48;100276.53;;;14.53;51.32
19005;BME280;9635;52.078;8.648;2023-05-01T19:27:51;100283.44;;;14.10;52.75
19005;BME280;9635;52.078;8.648;2023-05-01T19:32:54;100320.34;;;14.19;56.99
19005;BME280;9635;52.078;8.648;2023-05-01T19:37:59;100331.66;;;14.05;53.70
19005;BME280;9635;52.078;8.648;2023-05-01T19:43:02;100340.31;;;13.99;55.19
19005;BME280;9635;52.078;8.648;2023-05-01T19:48:05;100333.44;;;13.77;53.44
19005;BME280;9635;52.078;8.648;2023-05-01T19:53:10;100346.16;;;14.31;53.36
19005;BME280;9635;52.078;8.648;2023-05-01T19:58:13;100350.22;;;13.80;54.69
19005;BME280;9635;52.078;8.648;2023-05-01T20:03:16;100353.25;;;13.28;58.46
19005;BME280;9635;52.078;8.648;2023-05-01T20:08:20;100352.25;;;13.10;59.80
19005;BME280;9635;52.078;8.648;2023-05-01T20:13:24;100361.00;;;12.83;61.60
19005;BME280;9635;52.078;8.648;2023-05-01T20:18:27;100344.44;;;13.17;62.28
19005;BME280;9635;52.078;8.648;2023-05-01T20:23:31;100340.59;;;13.29;62.26
19005;BME280;9635;52.078;8.648;2023-05-01T20:28:34;100348.88;;;13.47;63.30
19005;BME280;9635;52.078;8.648;2023-05-01T20:33:37;100338.34;;;13.54;61.65
19005;BME280;9635;52.078;8.648;2023-05-01T20:38:41;100345.53;;;13.63;60.58
19005;BME280;9635;52.078;8.648;2023-05-01T20:43:45;100347.97;;;13.66;61.30
19005;BME280;9635;52.078;8.648;2023-05-01T20:48:48;100345.25;;;13.76;60.04
19005;BME280;9635;52.078;8.648;2023-05-01T20:53:53;100356.59;;;13.89;59.02
19005;BME280;9635;52.078;8.648;2023-05-01T20:58:56;100359.81;;;13.92;59.51
19005;BME280;9635;52.078;8.648;2023-05-01T21:04:02;100362.81;;;13.89;59.33
19005;BME280;9635;52.078;8.648;2023-05-01T21:09:06;100365.44;;;13.71;59.15
19005;BME280;9635;52.078;8.648;2023-05-01T21:14:11;100371.28;;;13.47;59.35
19005;BME280;9635;52.078;8.648;2023-05-01T21:19:14;100363.78;;;13.41;59.86
19005;BME280;9635;52.078;8.648;2023-05-01T21:24:22;100365.03;;;13.18;60.21
19005;BME280;9635;52.078;8.648;2023-05-01T21:29:25;100368.88;;;13.25;60.38
19005;BME280;9635;52.078;8.648;2023-05-01T21:34:28;100368.47;;;13.39;59.87
19005;BME280;9635;52.078;8.648;2023-05-01T21:39:32;100376.81;;;13.46;59.92
19005;BME280;9635;52.078;8.648;2023-05-01T21:44:35;100384.06;;;13.26;60.04
19005;BME280;9635;52.078;8.648;2023-05-01T21:49:38;100388.31;;;13.09;60.80
19005;BME280;9635;52.078;8.648;2023-05-01T21:54:42;100410.00;;;12.98;61.00
19005;BME280;9635;52.078;8.648;2023-05-01T21:59:45;100403.81;;;12.67;61.97
19005;BME280;9635;52.078;8.648;2023-05-01T22:04:51;100409.47;;;12.64;62.45
19005;BME280;9635;52.078;8.648;2023-05-01T22:09:56;100411.84;;;12.47;63.58
19005;BME280;9635;52.078;8.648;2023-05-01T22:14:59;100418.63;;;12.42;64.10
19005;BME280;9635;52.078;8.648;2023-05-01T22:20:02;100420.28;;;12.33;64.45
19005;BME280;9635;52.078;8.648;2023-05-01T22:25:08;100409.63;;;12.62;63.50
19005;BME280;9635;52.078;8.648;2023-05-01T22:30:12;100423.72;;;12.75;63.01
19005;BME280;9635;52.078;8.648;2023-05-01T22:35:14;100435.75;;;12.62;63.60
19005;BME280;9635;52.078;8.648;2023-05-01T22:40:18;100427.22;;;12.56;64.42
19005;BME280;9635;52.078;8.648;2023-05-01T22:45:21;100429.56;;;12.50;65.49
19005;BME280;9635;52.078;8.648;2023-05-01T22:50:24;100450.81;;;12.22;67.54
19005;BME280;9635;52.078;8.648;2023-05-01T22:55:28;100446.16;;;12.03;68.62
19005;BME280;9635;52.078;8.648;2023-05-01T23:00:31;100452.34;;;12.15;69.59
19005;BME280;9635;52.078;8.648;2023-05-01T23:05:34;100451.63;;;12.13;71.14
19005;BME280;9635;52.078;8.648;2023-05-01T23:10:40;100449.66;;;12.36;73.26
19005;BME280;9635;52.078;8.648;2023-05-01T23:15:45;100457.44;;;12.39;72.25
19005;BME280;9635;52.078;8.648;2023-05-01T23:20:50;100456.78;;;12.47;72.60
19005;BME280;9635;52.078;8.648;2023-05-01T23:25:55;100465.25;;;12.42;72.10
19005;BME280;9635;52.078;8.648;2023-05-01T23:30:59;100462.38;;;12.34;71.20
19005;BME280;9635;52.078;8.648;2023-05-01T23:36:03;100464.22;;;12.33;72.26
19005;BME280;9635;52.078;8.648;2023-05-01T23:41:08;100464.75;;;12.48;72.22
19005;BME280;9635;52.078;8.648;2023-05-01T23:46:11;100460.16;;;12.39;70.45
19005;BME280;9635;52.078;8.648;2023-05-01T23:51:14;100466.94;;;12.33;70.05
19005;BME280;9635;52.078;8.648;2023-05-01T23:56:18;100467.19;;;12.30;69.12
